Time;durP1;ratioP1;P1;durP2;ratioP2;P2;SDS_P1;SDS_P2;PMS_P1;PMS_P2;Temp;Humidity;BMP_temperature;BMP_pressure;BME280_temperature;BME280_humidity;BME280_pressure;Samples;Min_cycle;Max_cycle;Signal;HPM_P1;HPM_P2
2022/01/21 00:01:27;;;;;;;2.75;0.90;;;15.10;46.70;14.10;102659.00;;;;5060584;28;20078;-71
2022/01/21 00:04:13;;;;;;;1.98;0.70;;;15.10;45.90;14.10;102669.00;;;;5052396;28;20143;-72
2022/01/21 00:06:59;;;;;;;4.95;1.40;;;15.20;46.00;14.10;102677.00;;;;5063469;28;20032;-71
2022/01/21 00:09:47;;;;;;;3.67;1.00;;;15.10;45.90;14.10;102679.00;;;;5064748;28;20059;-71
2022/01/21 00:12:34;;;;;;;1.10;0.70;;;15.20;46.00;14.10;102682.00;;;;5062139;28;20465;-71
2022/01/21 00:15:20;;;;;;;3.45;0.95;;;15.20;46.00;14.10;102682.00;;;;5068984;28;20043;-71
2022/01/21 00:18:08;;;;;;;2.92;0.80;;;15.10;46.00;14.10;102680.00;;;;5062457;28;20405;-71
2022/01/21 00:30:15;;;;;;;4.90;1.25;;;15.10;46.00;14.10;102675.00;;;;5050442;28;20436;-71
2022/01/21 00:33:01;;;;;;;2.75;0.73;;;15.20;46.00;14.10;102667.00;;;;5053631;28;20040;-71
2022/01/21 00:35:47;;;;;;;1.88;0.55;;;15.20;46.00;14.10;102662.00;;;;5052193;28;20037;-71
2022/01/21 00:38:33;;;;;;;2.58;0.73;;;15.10;46.00;14.10;102672.00;;;;5064280;28;20044;-71
2022/01/21 00:41:23;;;;;;;2.95;0.77;;;15.10;46.00;14.10;102681.00;;;;5066784;28;20125;-71
2022/01/21 00:44:09;;;;;;;4.30;1.00;;;15.10;46.00;14.10;102663.00;;;;5061511;28;20469;-71
2022/01/21 00:46:55;;;;;;;3.70;0.98;;;15.10;46.00;14.10;102652.00;;;;5064927;28;20438;-71
2022/01/21 00:49:41;;;;;;;2.55;0.88;;;15.10;46.00;14.10;102654.00;;;;5051064;28;20036;-71
2022/01/21 00:52:27;;;;;;;2.33;0.77;;;15.10;46.10;14.10;102666.00;;;;5059531;28;20444;-71
2022/01/21 00:55:13;;;;;;;3.90;1.60;;;15.10;46.10;14.10;102674.00;;;;5061394;28;20590;-71
2022/01/21 00:57:59;;;;;;;3.53;0.90;;;15.10;46.00;14.10;102668.00;;;;5065445;28;20052;-71
2022/01/21 01:00:45;;;;;;;4.55;1.25;;;15.10;46.10;14.10;102681.00;;;;5065108;28;20123;-71
2022/01/21 01:03:31;;;;;;;3.60;0.90;;;15.10;46.10;14.10;102678.00;;;;5057617;28;20040;-71
2022/01/21 01:06:17;;;;;;;2.75;0.82;;;15.10;46.00;14.10;102675.00;;;;5066785;28;20071;-71
2022/01/21 01:09:03;;;;;;;2.92;1.00;;;15.10;46.10;14.10;102678.00;;;;5066941;28;20044;-71
2022/01/21 01:12:16;;;;;;;3.20;0.93;;;15.00;46.00;14.10;102679.00;;;;5057294;28;20089;-71
2022/01/21 01:21:12;;;;;;;4.03;1.05;;;15.10;46.10;14.00;102693.00;;;;5065761;28;20102;-70
2022/01/21 01:27:36;;;;;;;2.83;1.00;;;15.10;46.10;14.00;102689.00;;;;5068132;28;20032;-71
2022/01/21 01:30:19;;;;;;;5.82;1.40;;;15.10;46.10;14.00;102692.00;;;;5053228;28;20232;-71
2022/01/21 01:33:08;;;;;;;4.80;0.95;;;15.10;46.20;14.00;102696.00;;;;5053342;28;20040;-71
2022/01/21 01:35:55;;;;;;;4.18;0.93;;;15.00;46.10;14.00;102687.00;;;;5054869;28;20115;-71
2022/01/21 01:41:35;;;;;;;3.90;1.02;;;15.00;46.00;14.00;102678.00;;;;5065116;28;20097;-71
2022/01/21 01:50:30;;;;;;;3.45;1.08;;;15.00;46.00;14.00;102671.00;;;;5064093;28;20048;-71
2022/01/21 01:53:17;;;;;;;3.45;0.85;;;15.00;46.10;14.00;102682.00;;;;5069053;28;20493;-71
2022/01/21 01:56:07;;;;;;;5.47;1.20;;;15.00;46.10;14.00;102689.00;;;;5046998;28;20404;-70
2022/01/21 01:58:54;;;;;;;4.65;1.10;;;15.00;46.10;14.00;102703.00;;;;5059487;28;20047;-70
2022/01/21 02:01:40;;;;;;;2.70;0.93;;;15.00;46.10;14.00;102691.00;;;;5045457;28;20056;-71
2022/01/21 02:04:26;;;;;;;2.00;0.80;;;15.00;46.10;14.00;102697.00;;;;5070807;28;20040;-70
2022/01/21 02:07:15;;;;;;;3.80;1.00;;;15.00;46.10;14.00;102681.00;;;;5054523;28;20041;-71
2022/01/21 02:10:01;;;;;;;2.92;0.95;;;15.00;46.10;14.00;102673.00;;;;5051263;28;20032;-71
2022/01/21 02:12:47;;;;;;;3.30;1.20;;;15.00;46.10;14.00;102672.00;;;;5061167;28;20466;-71
2022/01/21 02:15:41;;;;;;;2.30;0.98;;;15.00;46.10;14.00;102696.00;;;;5034688;28;20052;-71
2022/01/21 02:21:41;;;;;;;3.78;1.25;;;15.00;46.00;14.00;102673.00;;;;5063615;28;20533;-71
2022/01/21 02:24:35;;;;;;;3.28;0.85;;;15.00;46.70;14.00;102676.00;;;;5052691;28;20040;-71
2022/01/21 02:27:21;;;;;;;4.97;0.90;;;15.00;46.10;14.00;102672.00;;;;5061383;28;20055;-71
2022/01/21 02:30:08;;;;;;;5.57;1.20;;;15.00;46.10;14.00;102676.00;;;;5055747;28;20041;-71
2022/01/21 02:32:56;;;;;;;4.53;1.17;;;15.00;46.10;14.00;102681.00;;;;5067089;28;20032;-71
2022/01/21 02:35:42;;;;;;;4.55;1.38;;;15.00;46.10;14.00;102677.00;;;;5053651;28;20381;-71
2022/01/21 02:38:28;;;;;;;4.00;1.50;;;15.00;46.10;14.00;102677.00;;;;5066878;28;20080;-71
2022/01/21 02:41:14;;;;;;;3.67;1.00;;;15.00;46.10;14.00;102672.00;;;;5062908;28;20040;-70
2022/01/21 02:44:01;;;;;;;2.95;0.93;;;15.00;46.10;14.00;102671.00;;;;5064847;28;20042;-71
2022/01/21 02:46:47;;;;;;;3.83;0.98;;;15.00;46.10;14.00;102663.00;;;;5064003;28;20037;-70
2022/01/21 02:49:33;;;;;;;3.70;1.20;;;15.00;46.10;14.00;102651.00;;;;5055102;28;20040;-71
2022/01/21 02:52:23;;;;;;;4.40;1.27;;;15.00;46.00;14.00;102666.00;;;;5052056;28;20060;-71
2022/01/21 02:55:10;;;;;;;3.80;1.13;;;15.00;46.10;14.00;102674.00;;;;5064953;28;20072;-71
2022/01/21 02:57:56;;;;;;;5.22;0.90;;;15.00;46.10;14.00;102673.00;;;;5068386;28;20037;-70
2022/01/21 03:00:42;;;;;;;3.08;1.05;;;15.00;46.10;14.00;102674.00;;;;5068680;28;20056;-71
2022/01/21 03:03:28;;;;;;;3.47;0.85;;;15.00;46.10;14.00;102666.00;;;;5066502;28;20037;-71
2022/01/21 03:06:15;;;;;;;4.78;1.30;;;15.00;46.10;14.00;102673.00;;;;5061667;28;20040;-71
2022/01/21 03:09:02;;;;;;;5.18;1.27;;;15.00;46.10;14.00;102676.00;;;;5054022;28;20517;-71
2022/01/21 03:11:48;;;;;;;6.70;1.20;;;15.00;46.10;14.00;102673.00;;;;5065702;28;20041;-71
2022/01/21 03:14:34;;;;;;;4.35;1.17;;;15.00;46.10;14.00;102670.00;;;;5064143;28;20040;-71
2022/01/21 03:17:20;;;;;;;4.63;0.90;;;15.00;46.10;14.00;102680.00;;;;5061039;28;20040;-71
2022/01/21 03:20:07;;;;;;;3.97;1.20;;;15.00;46.10;14.00;102686.00;;;;5048129;28;20116;-71
2022/01/21 03:22:53;;;;;;;4.65;1.20;;;15.00;46.80;13.90;102677.00;;;;5049162;28;20040;-71
2022/01/21 03:25:42;;;;;;;3.45;1.15;;;15.00;46.10;14.00;102678.00;;;;5063920;28;20079;-71
2022/01/21 03:28:28;;;;;;;4.13;1.15;;;15.00;46.10;14.00;102672.00;;;;5053173;28;20133;-71
2022/01/21 03:31:14;;;;;;;6.30;1.08;;;14.90;46.10;14.00;102670.00;;;;5063052;28;20532;-71
2022/01/21 03:34:01;;;;;;;2.55;1.02;;;15.00;46.10;14.00;102682.00;;;;5052711;28;20120;-71
2022/01/21 03:36:49;;;;;;;4.93;1.60;;;15.00;46.90;14.00;102685.00;;;;5051800;28;20119;-71
2022/01/21 03:39:35;;;;;;;5.50;1.08;;;15.00;46.20;14.00;102685.00;;;;5064378;28;20293;-71
2022/01/21 03:42:22;;;;;;;3.38;0.95;;;15.00;46.20;14.00;102686.00;;;;5064984;28;20126;-71
2022/01/21 03:45:09;;;;;;;3.20;1.20;;;15.00;46.20;14.00;102690.00;;;;5056280;28;20041;-71
2022/01/21 03:47:55;;;;;;;4.70;1.03;;;15.00;46.20;14.00;102686.00;;;;5047844;28;20475;-71
2022/01/21 03:50:41;;;;;;;3.85;1.00;;;15.00;46.20;14.00;102702.00;;;;5064278;28;20032;-71
2022/01/21 03:53:27;;;;;;;5.10;1.20;;;15.00;46.20;14.00;102699.00;;;;5055186;28;20047;-71
2022/01/21 03:56:14;;;;;;;3.58;1.08;;;15.00;46.20;14.00;102689.00;;;;5062454;28;20036;-71
2022/01/21 03:59:01;;;;;;;4.63;1.20;;;15.00;46.20;14.00;102697.00;;;;5052544;28;20483;-71
2022/01/21 04:01:47;;;;;;;5.05;1.20;;;15.00;46.20;14.00;102700.00;;;;5063125;28;20281;-71
2022/01/21 04:04:34;;;;;;;3.67;1.25;;;15.00;46.20;14.00;102702.00;;;;5067600;28;20049;-71
2022/01/21 04:07:20;;;;;;;3.63;1.25;;;15.00;46.20;14.00;102701.00;;;;5062212;28;20477;-71
2022/01/21 04:10:06;;;;;;;2.55;0.95;;;15.00;46.20;14.00;102701.00;;;;5064718;28;20032;-71
2022/01/21 04:12:52;;;;;;;5.70;1.20;;;15.00;46.20;14.00;102708.00;;;;5061568;28;20498;-71
2022/01/21 04:15:38;;;;;;;6.35;1.20;;;15.00;46.20;14.00;102709.00;;;;5063781;28;20530;-71
2022/01/21 04:18:24;;;;;;;4.68;1.00;;;15.00;46.20;14.00;102698.00;;;;5063213;28;20067;-71
2022/01/21 04:21:10;;;;;;;3.90;1.20;;;15.00;46.20;14.00;102700.00;;;;5052990;28;20470;-71
2022/01/21 04:23:57;;;;;;;5.18;0.90;;;15.00;46.20;14.00;102698.00;;;;5066671;28;20048;-71
2022/01/21 04:26:43;;;;;;;3.85;1.00;;;15.00;46.20;14.00;102697.00;;;;5063335;28;20041;-71
2022/01/21 04:29:29;;;;;;;4.20;1.00;;;15.00;46.20;14.00;102705.00;;;;5065065;28;20082;-71
2022/01/21 04:32:15;;;;;;;5.32;1.17;;;15.00;46.20;14.00;102693.00;;;;5064977;28;20037;-71
2022/01/21 04:35:01;;;;;;;3.13;1.02;;;15.10;46.20;14.00;102691.00;;;;5065366;28;20402;-71
2022/01/21 04:37:57;;;;;;;3.72;1.30;;;15.10;46.20;14.00;102681.00;;;;5055179;28;20044;-71
2022/01/21 04:41:07;;;;;;;3.67;1.20;;;15.10;46.20;14.00;102694.00;;;;5054276;28;20044;-70
2022/01/21 04:47:20;;;;;;;2.30;0.70;;;15.10;46.20;14.00;102698.00;;;;5024260;28;20506;-71
2022/01/21 04:50:11;;;;;;;4.68;0.90;;;15.10;46.20;14.00;102695.00;;;;5020266;28;20046;-71
2022/01/21 04:52:57;;;;;;;2.65;0.70;;;15.00;46.20;14.00;102703.00;;;;5063845;28;20068;-71
2022/01/21 04:55:43;;;;;;;4.28;0.95;;;15.10;46.30;14.00;102712.00;;;;5064853;28;20047;-71
2022/01/21 04:58:29;;;;;;;4.03;1.00;;;15.10;46.30;14.00;102707.00;;;;5063830;28;20041;-70
2022/01/21 05:01:15;;;;;;;4.82;1.00;;;15.00;46.20;14.00;102695.00;;;;5066840;28;20033;-71
2022/01/21 05:04:01;;;;;;;5.07;1.00;;;15.00;46.20;14.00;102706.00;;;;5064087;28;20044;-71
2022/01/21 05:06:49;;;;;;;4.40;0.88;;;15.00;46.20;14.00;102700.00;;;;5066833;28;20486;-71
2022/01/21 05:09:35;;;;;;;4.50;1.30;;;15.00;46.20;14.00;102697.00;;;;5067184;28;20041;-71
2022/01/21 05:12:24;;;;;;;3.80;0.90;;;15.00;46.30;14.00;102700.00;;;;5055290;28;20135;-70
2022/01/21 05:15:22;;;;;;;2.30;0.75;;;15.10;46.30;14.00;102711.00;;;;5070129;28;20102;-71
2022/01/21 05:18:09;;;;;;;3.20;1.00;;;15.00;46.20;14.00;102710.00;;;;5048564;28;20083;-71
2022/01/21 05:20:56;;;;;;;3.65;0.90;;;15.10;46.30;14.10;102706.00;;;;5066485;28;20040;-71
2022/01/21 05:23:42;;;;;;;3.58;1.10;;;15.10;46.30;14.10;102712.00;;;;5058829;28;20044;-71
2022/01/21 05:26:36;;;;;;;3.58;0.93;;;15.00;46.30;14.00;102722.00;;;;5065685;28;20040;-71
2022/01/21 05:29:24;;;;;;;2.47;0.93;;;15.10;46.30;14.10;102723.00;;;;5068467;28;20040;-70
2022/01/21 05:32:11;;;;;;;3.75;0.90;;;15.10;46.30;14.10;102721.00;;;;5047730;28;20067;-71
2022/01/21 05:34:57;;;;;;;2.67;0.70;;;15.10;46.30;14.10;102720.00;;;;5065989;28;20040;-71
2022/01/21 05:37:43;;;;;;;3.53;0.80;;;15.10;46.30;14.10;102718.00;;;;5066534;28;20504;-71
2022/01/21 05:40:29;;;;;;;3.88;0.98;;;15.00;46.90;14.10;102724.00;;;;5069193;28;20036;-71
2022/01/21 05:43:15;;;;;;;3.22;0.90;;;15.10;46.30;14.10;102714.00;;;;5066393;28;20072;-71
2022/01/21 05:49:06;;;;;;;3.50;0.80;;;15.10;46.30;14.10;102713.00;;;;5065704;28;20135;-71
2022/01/21 05:51:54;;;;;;;2.35;0.80;;;15.10;46.30;14.10;102703.00;;;;5061670;28;20040;-71
2022/01/21 05:54:41;;;;;;;2.78;0.73;;;15.10;46.30;14.10;102719.00;;;;5069415;28;20410;-71
2022/01/21 05:57:29;;;;;;;2.28;0.70;;;15.10;46.70;14.10;102719.00;;;;5069522;28;20047;-70
2022/01/21 06:00:16;;;;;;;2.22;0.88;;;15.10;46.30;14.10;102710.00;;;;5069913;28;20040;-71
2022/01/21 06:03:04;;;;;;;2.33;0.82;;;15.10;46.30;14.10;102716.00;;;;5062685;28;20043;-71
2022/01/21 06:05:50;;;;;;;2.42;0.73;;;15.10;46.30;14.10;102711.00;;;;5065715;28;20036;-70
2022/01/21 06:08:39;;;;;;;4.03;1.00;;;15.10;46.30;14.10;102715.00;;;;5068793;28;20040;-71
2022/01/21 06:11:25;;;;;;;3.45;0.93;;;15.10;46.20;14.10;102717.00;;;;5064373;28;20040;-70
2022/01/21 06:14:11;;;;;;;5.22;0.90;;;15.10;46.30;14.10;102717.00;;;;5049203;28;20398;-71
2022/01/21 06:16:57;;;;;;;2.25;0.90;;;15.10;46.30;14.10;102717.00;;;;5068926;28;20047;-71
2022/01/21 06:19:44;;;;;;;2.78;0.82;;;15.10;46.30;14.10;102731.00;;;;5048465;28;20040;-70
2022/01/21 06:22:31;;;;;;;4.05;0.75;;;15.10;46.30;14.10;102731.00;;;;5067530;28;20159;-71
2022/01/21 06:25:17;;;;;;;4.32;0.80;;;15.10;46.30;14.10;102735.00;;;;5063295;28;20196;-71
2022/01/21 06:28:04;;;;;;;3.28;1.00;;;15.10;46.20;14.10;102731.00;;;;5063873;28;20079;-71
2022/01/21 06:30:50;;;;;;;4.43;0.80;;;15.10;46.20;14.10;102725.00;;;;5054583;28;20064;-71
2022/01/21 06:33:36;;;;;;;3.03;0.73;;;15.10;46.20;14.10;102717.00;;;;5065018;28;20040;-71
2022/01/21 06:36:22;;;;;;;2.90;1.00;;;15.10;46.20;14.10;102717.00;;;;5062048;28;20043;-71
2022/01/21 06:39:08;;;;;;;3.28;1.08;;;15.10;46.30;14.10;102722.00;;;;5052094;28;20129;-71
2022/01/21 06:41:54;;;;;;;2.65;1.10;;;15.10;46.20;14.10;102715.00;;;;5059262;28;20044;-71
2022/01/21 06:44:40;;;;;;;4.30;0.90;;;15.20;46.30;14.10;102722.00;;;;5060577;28;20037;-71
2022/01/21 06:47:26;;;;;;;5.65;1.10;;;15.10;46.20;14.10;102723.00;;;;5060793;28;20272;-71
2022/01/21 06:50:12;;;;;;;2.75;1.00;;;15.10;46.20;14.10;102724.00;;;;5055050;28;20048;-71
2022/01/21 06:52:58;;;;;;;1.75;0.80;;;15.10;46.30;14.10;102723.00;;;;5064401;28;20119;-71
2022/01/21 06:55:45;;;;;;;1.98;0.73;;;15.10;46.30;14.10;102716.00;;;;5068019;28;20050;-71
2022/01/21 06:58:31;;;;;;;3.70;1.25;;;15.10;46.30;14.10;102738.00;;;;5067018;28;20048;-71
2022/01/21 07:01:17;;;;;;;3.88;1.30;;;15.10;46.30;14.10;102742.00;;;;5056911;28;20493;-71
2022/01/21 07:04:03;;;;;;;2.92;1.00;;;15.10;46.40;14.10;102736.00;;;;5063359;28;20049;-71
2022/01/21 07:06:49;;;;;;;5.28;1.38;;;15.10;46.40;14.10;102749.00;;;;5054539;28;20044;-71
2022/01/21 07:09:35;;;;;;;5.18;1.30;;;15.10;46.40;14.10;102761.00;;;;5062286;28;20041;-71
2022/01/21 07:12:21;;;;;;;8.10;1.45;;;15.10;46.30;14.10;102763.00;;;;5065036;28;20044;-71
2022/01/21 07:15:09;;;;;;;7.45;1.50;;;15.00;46.30;14.10;102765.00;;;;5061667;28;20033;-71
2022/01/21 07:17:55;;;;;;;4.47;1.38;;;15.10;46.30;14.00;102759.00;;;;5054340;28;20073;-71
2022/01/21 07:20:41;;;;;;;9.15;1.55;;;15.10;46.30;14.00;102751.00;;;;5066199;28;20036;-71
2022/01/21 07:23:27;;;;;;;6.82;1.55;;;15.10;46.20;14.00;102749.00;;;;5062972;28;20063;-71
2022/01/21 07:26:14;;;;;;;5.68;1.25;;;15.00;46.30;14.00;102754.00;;;;5061159;28;20440;-71
2022/01/21 07:29:01;;;;;;;7.25;2.03;;;15.00;46.30;14.00;102749.00;;;;5056407;28;20032;-71
2022/01/21 07:31:51;;;;;;;5.38;1.65;;;15.00;46.30;14.00;102751.00;;;;5052482;28;20417;-71
2022/01/21 07:34:37;;;;;;;5.50;1.00;;;15.00;46.30;13.90;102748.00;;;;5048151;28;20040;-71
2022/01/21 07:37:23;;;;;;;2.85;0.95;;;15.00;46.40;13.90;102750.00;;;;5053114;28;20040;-71
2022/01/21 07:40:12;;;;;;;4.03;1.02;;;15.00;46.40;13.90;102751.00;;;;5064590;28;20098;-71
2022/01/21 07:42:58;;;;;;;5.75;1.10;;;14.90;46.90;13.90;102756.00;;;;5066167;28;20036;-71
2022/01/21 07:45:44;;;;;;;5.82;1.30;;;14.90;46.40;13.90;102766.00;;;;5065447;28;20474;-71
2022/01/21 07:48:30;;;;;;;6.63;1.20;;;14.90;46.40;13.90;102771.00;;;;5066617;28;20090;-71
2022/01/21 07:51:17;;;;;;;6.68;1.15;;;14.90;46.50;13.90;102766.00;;;;5060469;28;20501;-71
2022/01/21 07:54:03;;;;;;;8.23;1.58;;;14.90;46.50;13.90;102762.00;;;;5064340;28;20501;-71
2022/01/21 07:56:49;;;;;;;7.40;1.55;;;14.90;46.50;13.90;102756.00;;;;5050900;28;20501;-71
2022/01/21 07:59:35;;;;;;;2.97;1.10;;;14.90;46.60;13.90;102758.00;;;;5063881;28;20037;-71
2022/01/21 08:02:24;;;;;;;3.17;0.90;;;14.80;46.50;13.90;102756.00;;;;5061142;28;20084;-70
2022/01/21 08:05:10;;;;;;;3.95;0.98;;;14.80;46.60;13.90;102758.00;;;;5064227;28;20472;-71
2022/01/21 08:07:56;;;;;;;3.92;1.08;;;14.80;46.50;13.90;102765.00;;;;5054191;28;20467;-70
2022/01/21 08:10:42;;;;;;;5.93;1.35;;;14.80;46.50;13.90;102773.00;;;;5066184;28;20041;-70
2022/01/21 08:13:28;;;;;;;4.18;0.95;;;14.80;46.50;13.90;102764.00;;;;5067879;28;20033;-70
2022/01/21 08:16:14;;;;;;;3.92;1.10;;;14.80;46.50;13.80;102770.00;;;;5042999;28;20141;-70
2022/01/21 08:19:00;;;;;;;2.38;0.80;;;14.80;46.50;13.80;102771.00;;;;5073333;28;20067;-71
2022/01/21 08:21:46;;;;;;;3.67;1.00;;;14.80;46.60;13.80;102767.00;;;;5057860;28;20068;-71
2022/01/21 08:24:32;;;;;;;4.93;1.23;;;14.80;46.60;13.80;102771.00;;;;5068006;28;20052;-71
2022/01/21 08:27:19;;;;;;;4.20;1.00;;;14.80;46.60;13.80;102769.00;;;;5061266;28;20337;-71
2022/01/21 08:30:06;;;;;;;2.47;0.93;;;14.80;46.50;13.80;102769.00;;;;5068091;28;20041;-71
2022/01/21 08:32:52;;;;;;;6.40;1.40;;;14.80;46.60;13.80;102782.00;;;;5045756;28;20041;-71
2022/01/21 08:35:38;;;;;;;4.90;1.50;;;14.80;46.60;13.80;102781.00;;;;5070561;28;20143;-71
2022/01/21 08:38:24;;;;;;;4.43;1.20;;;14.80;46.60;13.80;102777.00;;;;5066784;28;20051;-71
2022/01/21 08:41:10;;;;;;;4.35;0.95;;;14.80;46.60;13.80;102777.00;;;;5067034;28;20481;-71
2022/01/21 08:43:56;;;;;;;4.38;1.10;;;14.80;46.60;13.80;102778.00;;;;5060971;28;20043;-71
2022/01/21 08:46:42;;;;;;;3.33;1.05;;;14.80;46.70;13.80;102783.00;;;;5067790;28;20505;-71
2022/01/21 08:49:28;;;;;;;2.33;0.80;;;14.80;46.70;13.80;102772.00;;;;5066949;28;20040;-71
2022/01/21 08:52:19;;;;;;;3.28;1.15;;;14.80;46.70;13.80;102776.00;;;;5058411;28;20098;-71
2022/01/21 08:55:16;;;;;;;3.42;1.00;;;14.80;46.70;13.80;102772.00;;;;5067614;28;20425;-71
2022/01/21 08:58:02;;;;;;;4.03;1.20;;;14.80;46.60;13.80;102785.00;;;;5056307;28;20455;-71
2022/01/21 09:00:48;;;;;;;3.53;1.13;;;14.80;46.50;13.80;102770.00;;;;5068117;28;20037;-71
2022/01/21 09:03:34;;;;;;;2.13;0.85;;;14.80;46.60;13.90;102776.00;;;;5049104;28;20046;-71
2022/01/21 09:06:23;;;;;;;2.90;0.93;;;14.80;46.50;13.90;102774.00;;;;5056696;28;20091;-71
2022/01/21 09:09:09;;;;;;;3.13;0.98;;;14.80;46.60;13.90;102771.00;;;;5057815;28;20119;-71
2022/01/21 09:11:59;;;;;;;3.42;1.15;;;14.80;46.50;13.90;102782.00;;;;5063483;28;20035;-71
2022/01/21 09:14:46;;;;;;;3.05;1.17;;;14.90;46.60;13.90;102779.00;;;;5054180;28;20131;-71
2022/01/21 09:17:34;;;;;;;1.73;0.80;;;14.90;46.50;13.90;102780.00;;;;5052490;28;20516;-71
2022/01/21 09:20:20;;;;;;;2.90;0.95;;;14.80;46.50;13.90;102779.00;;;;5060092;28;20036;-71
2022/01/21 09:23:06;;;;;;;1.80;0.90;;;14.90;46.50;13.90;102788.00;;;;5066549;28;20043;-71
2022/01/21 09:25:52;;;;;;;4.13;1.00;;;14.90;46.60;13.90;102787.00;;;;5069995;28;20231;-71
2022/01/21 09:28:38;;;;;;;3.85;1.13;;;14.90;46.50;13.90;102789.00;;;;5052837;28;20043;-71
2022/01/21 09:31:25;;;;;;;2.90;0.90;;;14.90;46.60;13.90;102784.00;;;;5063000;28;20535;-71
2022/01/21 09:34:11;;;;;;;2.53;0.80;;;14.90;46.50;13.90;102783.00;;;;5059506;28;20032;-71
2022/01/21 09:37:02;;;;;;;2.65;1.05;;;14.90;46.50;13.90;102791.00;;;;5064988;28;20048;-71
2022/01/21 09:39:48;;;;;;;3.72;0.98;;;14.80;46.40;13.90;102797.00;;;;5054284;28;20040;-71
2022/01/21 09:42:35;;;;;;;4.95;1.38;;;14.90;46.60;13.90;102794.00;;;;5065885;28;20098;-71
2022/01/21 09:45:22;;;;;;;5.80;1.45;;;14.90;46.60;13.90;102794.00;;;;5067113;28;20418;-71
2022/01/21 09:48:10;;;;;;;3.50;1.15;;;14.90;46.60;13.90;102795.00;;;;5055024;28;20044;-71
2022/01/21 09:50:59;;;;;;;3.58;1.25;;;14.80;46.50;13.90;102793.00;;;;5049121;28;20037;-71
2022/01/21 09:53:45;;;;;;;3.20;0.93;;;14.90;46.60;13.90;102790.00;;;;5069060;28;20401;-71
2022/01/21 09:56:31;;;;;;;2.85;0.90;;;14.90;46.60;13.90;102791.00;;;;5046769;28;20444;-71
2022/01/21 09:59:18;;;;;;;4.75;1.17;;;14.90;46.70;13.90;102805.00;;;;5049610;28;20383;-71
2022/01/21 10:02:06;;;;;;;3.50;0.90;;;14.80;46.60;13.90;102795.00;;;;5049602;28;20050;-71
2022/01/21 10:04:52;;;;;;;;;;;14.80;46.60;13.80;102790.00;;;;5051165;28;20116;-71
2022/01/21 10:07:41;;;;;;;1.67;0.63;;;14.90;46.70;13.80;102802.00;;;;5047160;28;19920;-71
2022/01/21 10:10:27;;;;;;;7.03;1.58;;;14.90;46.70;13.80;102792.00;;;;5046859;28;20091;-71
2022/01/21 10:13:15;;;;;;;4.07;0.70;;;14.90;46.60;13.80;102798.00;;;;5056450;28;20397;-71
2022/01/21 10:16:03;;;;;;;3.78;1.10;;;14.80;46.70;13.80;102797.00;;;;5061137;28;20060;-71
2022/01/21 10:19:00;;;;;;;;;;;14.80;46.70;13.80;102800.00;;;;5056639;28;20127;-71
2022/01/21 10:21:47;;;;;;;2.83;0.90;;;14.90;46.80;13.80;102801.00;;;;5065217;28;20409;-71
2022/01/21 10:24:53;;;;;;;3.45;0.77;;;14.90;46.80;13.80;102805.00;;;;5063120;28;20045;-71
2022/01/21 10:27:39;;;;;;;5.00;0.85;;;14.90;46.80;13.80;102793.00;;;;5070754;28;20053;-71
2022/01/21 10:30:25;;;;;;;2.35;0.73;;;14.80;46.80;13.80;102797.00;;;;5059868;28;20047;-71
2022/01/21 10:33:27;;;;;;;5.32;1.00;;;14.80;46.70;13.90;102794.00;;;;5050782;28;20401;-71
2022/01/21 10:36:25;;;;;;;4.60;1.17;;;14.90;46.80;13.90;102787.00;;;;5065822;28;20062;-71
2022/01/21 10:39:18;;;;;;;4.30;1.08;;;14.90;46.70;13.90;102797.00;;;;5048332;28;20469;-71
2022/01/21 10:42:04;;;;;;;2.42;0.60;;;14.90;46.60;13.90;102793.00;;;;5062446;28;20123;-71
2022/01/21 10:44:50;;;;;;;2.15;0.65;;;14.90;46.60;13.90;102799.00;;;;5052549;28;20513;-71
2022/01/21 10:47:40;;;;;;;3.47;0.88;;;14.90;46.70;14.00;102796.00;;;;5052490;28;20219;-71
2022/01/21 10:50:26;;;;;;;3.25;1.25;;;14.90;46.70;14.00;102793.00;;;;5063873;28;20115;-71
2022/01/21 10:53:27;;;;;;;4.75;1.42;;;15.00;46.70;14.00;102790.00;;;;5065603;28;20485;-71
2022/01/21 10:56:18;;;;;;;2.50;0.77;;;15.00;46.70;14.00;102779.00;;;;5047882;28;20135;-71
2022/01/21 10:59:04;;;;;;;4.22;1.20;;;15.00;46.70;14.00;102786.00;;;;5046475;28;20052;-71
2022/01/21 11:01:58;;;;;;;4.25;0.60;;;15.10;46.80;14.10;102781.00;;;;5065711;28;20036;-71
2022/01/21 11:04:44;;;;;;;2.97;0.90;;;15.00;46.70;14.10;102773.00;;;;5058319;28;20107;-71
2022/01/21 11:08:02;;;;;;;3.28;0.70;;;15.10;46.80;14.10;102781.00;;;;5062294;28;20051;-71
2022/01/21 11:10:50;;;;;;;2.95;0.80;;;15.10;46.80;14.10;102778.00;;;;5048159;28;20041;-71
2022/01/21 11:13:37;;;;;;;;;;;15.10;46.80;14.00;102775.00;;;;5068293;28;20047;-71
2022/01/21 11:16:25;;;;;;;3.42;1.13;;;15.10;46.80;14.00;102773.00;;;;5029203;28;19913;-71
2022/01/21 11:19:13;;;;;;;4.65;0.85;;;15.10;46.70;14.00;102771.00;;;;5056586;28;20040;-71
2022/01/21 11:22:01;;;;;;;3.50;0.80;;;15.10;46.70;14.00;102781.00;;;;5048512;28;20031;-71
2022/01/21 11:24:48;;;;;;;2.78;0.80;;;15.10;46.70;14.00;102778.00;;;;5047763;28;20480;-71
2022/01/21 11:27:34;;;;;;;4.70;1.15;;;15.10;46.70;14.00;102778.00;;;;5042989;28;20085;-71
2022/01/21 11:30:21;;;;;;;3.75;0.93;;;15.10;46.80;14.00;102769.00;;;;5046157;28;20047;-71
2022/01/21 11:33:07;;;;;;;5.57;1.10;;;15.10;46.80;14.00;102772.00;;;;5047369;28;20067;-71
2022/01/21 11:35:53;;;;;;;3.80;1.10;;;15.10;46.80;14.00;102779.00;;;;5047649;28;20040;-71
2022/01/21 11:38:43;;;;;;;3.40;0.93;;;15.10;46.80;14.00;102773.00;;;;5068220;28;20040;-71
2022/01/21 11:41:29;;;;;;;3.30;0.60;;;15.10;46.80;14.00;102765.00;;;;5046368;28;20413;-71
2022/01/21 11:44:15;;;;;;;2.38;0.90;;;15.10;46.80;14.00;102763.00;;;;5054570;28;20052;-71
2022/01/21 11:47:17;;;;;;;4.65;1.08;;;15.10;46.90;14.00;102760.00;;;;5046846;28;20049;-71
2022/01/21 11:50:05;;;;;;;4.82;1.13;;;15.10;46.90;14.00;102760.00;;;;5051477;28;20040;-71
2022/01/21 11:52:51;;;;;;;3.00;0.90;;;15.10;46.90;14.00;102757.00;;;;5040880;28;20538;-71
2022/01/21 11:55:47;;;;;;;3.03;1.00;;;15.10;46.90;14.00;102754.00;;;;5065164;28;20047;-71
2022/01/21 11:58:33;;;;;;;3.25;0.77;;;15.10;47.00;14.00;102754.00;;;;5060863;28;20060;-71
2022/01/21 12:01:33;;;;;;;3.33;1.05;;;15.10;47.00;14.00;102749.00;;;;5056854;28;20505;-71
2022/01/21 12:04:31;;;;;;;5.45;1.50;;;15.10;47.00;14.00;102746.00;;;;5061447;28;20482;-71
2022/01/21 12:07:36;;;;;;;6.32;1.40;;;15.00;47.00;14.00;102746.00;;;;5066879;28;20044;-71
2022/01/21 12:10:23;;;;;;;4.75;1.25;;;14.90;47.00;14.00;102748.00;;;;5061595;28;20036;-71
2022/01/21 12:13:15;;;;;;;3.42;1.13;;;15.00;46.90;14.00;102747.00;;;;5060192;28;20037;-71
2022/01/21 12:19:18;;;;;;;4.50;1.10;;;15.00;47.10;14.00;102751.00;;;;5066630;28;20032;-71
2022/01/21 12:22:18;;;;;;;4.15;1.27;;;15.00;47.10;14.00;102747.00;;;;5054924;28;20040;-71
2022/01/21 12:25:08;;;;;;;3.35;0.90;;;15.00;47.20;14.00;102749.00;;;;5051607;28;20075;-71
2022/01/21 12:28:17;;;;;;;5.30;1.70;;;15.00;47.20;14.00;102753.00;;;;5064582;28;20076;-71
2022/01/21 12:31:04;;;;;;;;;;;15.00;47.30;14.00;102758.00;;;;5034019;28;20041;-71
2022/01/21 12:34:11;;;;;;;6.10;1.60;;;15.00;47.20;14.00;102766.00;;;;5049173;28;19954;-71
2022/01/21 12:37:05;;;;;;;4.13;1.17;;;15.10;47.30;14.10;102753.00;;;;5067351;28;20033;-71
2022/01/21 12:39:51;;;;;;;3.92;1.05;;;15.10;47.30;14.10;102752.00;;;;5048325;28;20072;-71
2022/01/21 12:42:37;;;;;;;3.30;1.23;;;15.10;47.30;14.10;102748.00;;;;5061519;28;20041;-71
2022/01/21 12:45:23;;;;;;;5.78;1.20;;;15.20;47.50;14.10;102739.00;;;;5068090;28;20052;-71
2022/01/21 12:48:32;;;;;;;4.03;1.38;;;15.20;47.40;14.10;102733.00;;;;5064647;28;20389;-71
2022/01/21 12:57:15;;;;;;;7.75;0.93;;;15.10;47.40;14.10;102726.00;;;;5066391;28;20040;-71
2022/01/21 13:00:09;;;;;;;5.45;1.58;;;15.20;47.40;14.20;102727.00;;;;5046288;28;20041;-71
2022/01/21 13:02:56;;;;;;;6.25;1.10;;;15.20;47.50;14.10;102722.00;;;;5052556;28;20269;-71
2022/01/21 13:05:44;;;;;;;6.75;1.10;;;15.20;47.50;14.20;102727.00;;;;5053366;28;20041;-71